createdAt,value
2022-11-29T00:01:25.106Z,58.50
2022-11-29T00:03:52.491Z,51.28
2022-11-29T00:06:22.605Z,52.78
2022-11-29T00:08:52.186Z,55.65
2022-11-29T00:11:44.216Z,49.15
2022-11-29T00:14:14.327Z,46.13
2022-11-29T00:16:43.145Z,49.72
2022-11-29T00:19:11.492Z,45.45
2022-11-29T00:21:37.941Z,46.67
2022-11-29T00:24:04.968Z,49.00
2022-11-29T00:26:31.433Z,44.70
2022-11-29T00:28:57.802Z,46.75
2022-11-29T00:31:27.661Z,48.40
2022-11-29T00:33:54.086Z,64.90
2022-11-29T00:36:20.549Z,45.75
2022-11-29T00:38:46.968Z,51.50
2022-11-29T00:41:13.970Z,53.92
2022-11-29T00:43:40.373Z,55.97
2022-11-29T00:46:07.325Z,47.38
2022-11-29T00:48:37.151Z,49.60
2022-11-29T00:51:05.035Z,53.45
2022-11-29T00:53:32.048Z,54.90
2022-11-29T00:55:58.543Z,48.55
2022-11-29T00:58:24.951Z,52.75
2022-11-29T01:00:53.187Z,48.22
2022-11-29T01:03:19.828Z,47.28
2022-11-29T01:05:46.830Z,48.90
2022-11-29T01:08:14.087Z,54.33
2022-11-29T01:10:41.170Z,48.38
2022-11-29T01:13:08.710Z,40.70
2022-11-29T01:15:35.907Z,48.63
2022-11-29T01:18:02.636Z,48.20
2022-11-29T01:20:29.119Z,51.28
2022-11-29T01:22:55.796Z,41.92
2022-11-29T01:25:22.224Z,51.63
2022-11-29T01:27:48.600Z,42.88
2022-11-29T01:30:15.212Z,46.55
2022-11-29T01:32:41.692Z,46.55
2022-11-29T01:35:08.593Z,44.53
2022-11-29T01:37:35.123Z,46.88
2022-11-29T01:40:01.875Z,43.33
2022-11-29T01:42:28.287Z,45.15
2022-11-29T01:45:23.178Z,44.65
2022-11-29T01:47:55.014Z,45.60
2022-11-29T01:50:21.923Z,45.50
2022-11-29T01:52:48.807Z,43.08
2022-11-29T01:55:15.599Z,40.13
2022-11-29T01:57:43.266Z,45.53
2022-11-29T02:00:16.048Z,40.50
2022-11-29T02:03:10.139Z,36.70
2022-11-29T02:05:40.923Z,43.90
2022-11-29T02:08:09.713Z,39.85
2022-11-29T02:10:57.545Z,38.38
2022-11-29T02:13:39.148Z,37.42
2022-11-29T02:16:15.952Z,41.40
2022-11-29T02:19:04.071Z,36.80
2022-11-29T02:21:44.074Z,56.88
2022-11-29T02:24:39.643Z,43.38
2022-11-29T02:27:37.251Z,52.42
2022-11-29T02:30:18.529Z,44.80
2022-11-29T02:33:05.920Z,48.72
2022-11-29T02:36:00.323Z,37.78
2022-11-29T02:39:11.498Z,41.88
2022-11-29T02:42:22.134Z,49.70
2022-11-29T02:45:06.346Z,41.55
2022-11-29T02:47:42.466Z,41.05
2022-11-29T02:50:44.920Z,51.53
2022-11-29T02:53:25.914Z,34.03
2022-11-29T02:56:04.252Z,41.90
2022-11-29T02:59:06.079Z,41.70
2022-11-29T03:01:35.170Z,46.58
2022-11-29T03:04:23.509Z,38.75
2022-11-29T03:07:19.063Z,56.92
2022-11-29T03:10:11.619Z,55.38
2022-11-29T03:15:09.361Z,46.75
2022-11-29T03:17:57.645Z,49.08
2022-11-29T03:20:45.500Z,49.38
2022-11-29T03:23:21.830Z,47.33
2022-11-29T03:25:57.260Z,45.38
2022-11-29T03:28:37.357Z,50.00
2022-11-29T03:31:14.102Z,43.72
2022-11-29T03:33:48.358Z,38.42
2022-11-29T03:36:27.701Z,63.25
2022-11-29T03:39:00.491Z,58.88
2022-11-29T03:41:41.275Z,52.10
2022-11-29T03:44:24.054Z,38.30
2022-11-29T03:46:58.366Z,46.55
2022-11-29T03:49:33.044Z,43.55
2022-11-29T03:52:20.628Z,37.60
2022-11-29T03:55:05.187Z,39.50
2022-11-29T03:57:57.076Z,42.05
2022-11-29T04:00:23.742Z,41.00
2022-11-29T04:03:07.764Z,36.78
2022-11-29T04:05:42.258Z,47.70
2022-11-29T04:08:35.035Z,55.33
2022-11-29T04:11:58.677Z,53.47
2022-11-29T04:14:33.778Z,41.35
2022-11-29T04:17:15.366Z,46.53
2022-11-29T04:20:04.873Z,51.92
2022-11-29T04:22:33.913Z,64.10
2022-11-29T04:25:44.304Z,59.45
2022-11-29T04:28:25.555Z,55.95
2022-11-29T04:31:07.144Z,47.00
2022-11-29T04:34:18.550Z,50.50
2022-11-29T04:37:07.784Z,42.72
2022-11-29T04:39:49.064Z,48.80
2022-11-29T04:42:46.073Z,45.85
2022-11-29T04:45:34.763Z,39.20
2022-11-29T04:48:06.899Z,50.70
2022-11-29T04:53:32.521Z,57.55
2022-11-29T04:56:15.046Z,40.38
2022-11-29T04:59:02.211Z,44.65
2022-11-29T05:02:11.256Z,46.03
2022-11-29T05:05:03.220Z,46.22
2022-11-29T05:07:50.053Z,44.83
2022-11-29T05:10:41.720Z,41.03
2022-11-29T05:13:32.659Z,36.03
2022-11-29T05:16:22.880Z,40.33
2022-11-29T05:19:17.220Z,47.28
2022-11-29T05:22:20.170Z,40.28
2022-11-29T05:24:56.033Z,43.90
2022-11-29T05:27:45.171Z,35.88
2022-11-29T05:30:13.378Z,56.45
2022-11-29T05:33:21.836Z,47.47
2022-11-29T05:36:18.988Z,48.80
2022-11-29T05:39:10.267Z,47.92
2022-11-29T05:41:55.429Z,48.55
2022-11-29T05:44:31.593Z,36.63
2022-11-29T05:47:03.045Z,38.90
2022-11-29T05:49:39.549Z,39.15
2022-11-29T05:52:20.212Z,34.47
2022-11-29T05:55:03.408Z,42.40
2022-11-29T05:57:56.993Z,44.63
2022-11-29T06:00:24.582Z,41.63
2022-11-29T06:03:06.154Z,39.08
2022-11-29T06:05:42.226Z,34.50
2022-11-29T06:08:19.400Z,38.50
2022-11-29T06:11:13.863Z,35.35
2022-11-29T06:14:00.647Z,40.53
2022-11-29T06:16:36.453Z,43.78
2022-11-29T06:19:23.960Z,47.22
2022-11-29T06:22:00.107Z,36.00
2022-11-29T06:25:11.579Z,42.42
2022-11-29T06:27:59.066Z,27.65
2022-11-29T06:30:32.078Z,36.63
2022-11-29T06:33:21.453Z,42.22
2022-11-29T06:36:23.085Z,35.60
2022-11-29T06:38:49.767Z,28.15
2022-11-29T06:41:22.410Z,28.65
2022-11-29T06:43:49.637Z,32.03
2022-11-29T06:46:25.321Z,32.55
2022-11-29T06:49:02.086Z,36.63
2022-11-29T06:51:35.544Z,35.28
2022-11-29T06:54:28.855Z,32.85
2022-11-29T06:57:05.987Z,28.52
2022-11-29T06:59:51.213Z,23.48
2022-11-29T07:02:43.283Z,21.73
2022-11-29T07:05:29.117Z,25.65
2022-11-29T07:08:00.688Z,27.17
2022-11-29T07:10:31.220Z,24.95
2022-11-29T07:12:57.849Z,24.55
2022-11-29T07:15:24.914Z,28.85
2022-11-29T07:18:14.136Z,22.88
2022-11-29T07:21:01.817Z,26.63
2022-11-29T07:23:33.392Z,20.98
2022-11-29T07:26:08.600Z,30.13
2022-11-29T07:28:37.899Z,26.38
2022-11-29T07:31:29.379Z,23.65
2022-11-29T07:34:27.188Z,20.25
2022-11-29T07:37:10.698Z,31.52
2022-11-29T07:39:51.768Z,21.25
2022-11-29T07:42:27.117Z,24.20
2022-11-29T07:45:14.640Z,26.27
2022-11-29T07:47:40.966Z,23.02
2022-11-29T07:50:08.012Z,20.58
2022-11-29T07:52:34.537Z,27.05
2022-11-29T07:55:03.158Z,29.52
2022-11-29T07:57:29.518Z,23.70
2022-11-29T07:59:56.006Z,33.33
2022-11-29T08:02:29.849Z,23.70
2022-11-29T08:04:56.644Z,19.52
2022-11-29T08:07:23.473Z,24.00
2022-11-29T08:09:49.911Z,23.80
2022-11-29T08:12:17.966Z,20.45
2022-11-29T08:14:44.664Z,19.00
2022-11-29T08:17:11.280Z,26.52
2022-11-29T08:19:40.638Z,19.85
2022-11-29T08:22:07.021Z,22.00
2022-11-29T08:24:33.443Z,24.77
2022-11-29T08:26:59.792Z,31.10
2022-11-29T08:29:26.339Z,29.08
2022-11-29T08:31:53.807Z,27.08
2022-11-29T08:34:21.549Z,26.75
2022-11-29T08:36:48.987Z,22.65
2022-11-29T08:39:15.603Z,25.92
2022-11-29T08:41:44.917Z,21.60
2022-11-29T08:44:11.340Z,25.60
2022-11-29T08:46:56.651Z,22.23
2022-11-29T08:49:23.078Z,20.33
2022-11-29T08:51:52.856Z,20.30
2022-11-29T08:54:19.254Z,20.60
2022-11-29T08:59:32.196Z,34.03
2022-11-29T09:01:58.769Z,25.20
2022-11-29T09:04:25.184Z,25.95
2022-11-29T09:06:51.547Z,31.80
2022-11-29T09:09:18.112Z,30.95
2022-11-29T09:11:48.233Z,22.48
2022-11-29T09:14:18.116Z,19.40
2022-11-29T09:16:44.681Z,21.33
2022-11-29T09:19:14.211Z,30.73
2022-11-29T09:21:40.587Z,21.20
2022-11-29T09:24:07.112Z,30.42
2022-11-29T09:26:36.032Z,18.92
2022-11-29T09:29:05.037Z,18.77
2022-11-29T09:31:32.748Z,19.17
2022-11-29T09:33:59.740Z,22.83
2022-11-29T09:36:29.225Z,22.20
2022-11-29T09:38:57.043Z,19.60
2022-11-29T09:41:48.391Z,24.50
2022-11-29T09:44:31.572Z,21.13
2022-11-29T09:47:27.275Z,29.88
2022-11-29T09:50:16.408Z,16.23
2022-11-29T09:52:51.548Z,19.02
2022-11-29T09:55:39.147Z,19.55
2022-11-29T09:58:13.162Z,17.90
2022-11-29T10:00:48.398Z,20.27
2022-11-29T10:03:29.347Z,17.73
2022-11-29T10:06:02.207Z,19.05
2022-11-29T10:08:37.169Z,16.23
2022-11-29T10:11:19.537Z,19.58
2022-11-29T10:16:34.339Z,16.75
2022-11-29T10:19:07.813Z,23.08
2022-11-29T10:21:36.846Z,12.73
2022-11-29T10:24:14.663Z,18.27
2022-11-29T10:26:41.417Z,15.35
2022-11-29T10:29:13.479Z,18.50
2022-11-29T10:31:43.975Z,14.85
2022-11-29T10:34:18.977Z,22.83
2022-11-29T10:36:52.188Z,15.80
2022-11-29T10:39:37.175Z,14.15
2022-11-29T10:42:32.632Z,18.10
2022-11-29T10:45:00.045Z,17.33
2022-11-29T10:47:26.549Z,14.68
2022-11-29T10:49:53.098Z,17.50
2022-11-29T10:52:21.954Z,17.90
2022-11-29T10:54:50.887Z,17.92
2022-11-29T10:57:21.907Z,17.20
2022-11-29T11:00:02.120Z,15.38
2022-11-29T11:02:28.860Z,14.95
2022-11-29T11:04:55.416Z,14.68
2022-11-29T11:07:42.160Z,16.83
2022-11-29T11:10:26.566Z,12.50
2022-11-29T11:13:18.595Z,14.05
2022-11-29T11:15:45.328Z,12.82
2022-11-29T11:18:21.234Z,12.57
2022-11-29T11:20:57.031Z,14.52
2022-11-29T11:23:25.742Z,15.88
2022-11-29T11:26:02.219Z,14.45
2022-11-29T11:28:34.153Z,15.82
2022-11-29T11:31:07.854Z,13.65
2022-11-29T11:33:41.040Z,15.30
2022-11-29T11:36:19.440Z,14.75
2022-11-29T11:38:59.441Z,14.02
2022-11-29T11:41:55.696Z,13.43
2022-11-29T11:44:52.291Z,18.70
2022-11-29T11:47:24.147Z,14.60
2022-11-29T11:50:12.761Z,13.88
2022-11-29T11:52:41.333Z,14.13
2022-11-29T11:55:19.097Z,13.30
2022-11-29T11:57:45.464Z,14.45
2022-11-29T12:01:03.422Z,11.73
2022-11-29T12:03:41.769Z,15.60
2022-11-29T12:06:28.263Z,13.55
2022-11-29T12:09:09.798Z,14.48
2022-11-29T12:12:00.183Z,13.75
2022-11-29T12:14:32.118Z,19.33
2022-11-29T12:17:08.112Z,10.45
2022-11-29T12:19:43.888Z,12.35
2022-11-29T12:22:16.523Z,19.60
2022-11-29T12:24:54.158Z,12.65
2022-11-29T12:27:20.643Z,14.48
2022-11-29T12:29:47.205Z,13.93
2022-11-29T12:32:27.906Z,14.30
2022-11-29T12:35:35.105Z,13.30
2022-11-29T12:38:13.312Z,14.25
2022-11-29T12:40:58.403Z,11.95
2022-11-29T12:43:53.264Z,16.35
2022-11-29T12:46:30.336Z,13.35
2022-11-29T12:49:12.022Z,12.82
2022-11-29T12:52:04.848Z,13.50
2022-11-29T12:54:50.007Z,17.13
2022-11-29T12:57:54.528Z,15.70
2022-11-29T13:00:21.488Z,14.98
2022-11-29T13:03:27.513Z,15.52
2022-11-29T13:06:12.634Z,10.77
2022-11-29T13:09:02.388Z,19.45
2022-11-29T13:11:37.774Z,14.63
2022-11-29T13:14:42.824Z,15.98
2022-11-29T13:17:26.956Z,12.40
2022-11-29T13:19:58.036Z,15.50
2022-11-29T13:22:45.436Z,13.43
2022-11-29T13:25:20.751Z,14.52
2022-11-29T13:28:00.224Z,14.73
2022-11-29T13:30:26.909Z,16.25
2022-11-29T13:33:12.122Z,20.08
2022-11-29T13:35:43.204Z,17.60
2022-11-29T13:38:19.670Z,11.35
2022-11-29T13:41:02.228Z,12.00
2022-11-29T13:43:50.190Z,13.95
2022-11-29T13:46:56.820Z,15.23
2022-11-29T13:49:55.282Z,18.98
2022-11-29T13:52:35.198Z,17.08
2022-11-29T13:55:05.993Z,16.58
2022-11-29T14:00:42.362Z,15.48
2022-11-29T14:03:24.087Z,20.60
2022-11-29T14:05:50.428Z,13.63
2022-11-29T14:08:37.699Z,14.18
2022-11-29T14:11:13.957Z,15.95
2022-11-29T14:13:58.992Z,16.38
2022-11-29T14:16:43.735Z,18.60
2022-11-29T14:19:10.092Z,16.88
2022-11-29T14:22:07.442Z,19.10
2022-11-29T14:24:36.850Z,14.98
2022-11-29T14:27:06.330Z,15.77
2022-11-29T14:29:48.388Z,17.55
2022-11-29T14:32:46.356Z,20.35
2022-11-29T14:35:13.013Z,19.10
2022-11-29T14:38:14.444Z,22.77
2022-11-29T14:40:40.799Z,16.85
2022-11-29T14:43:23.669Z,19.30
2022-11-29T14:46:29.038Z,19.60
2022-11-29T14:48:55.924Z,19.00
2022-11-29T14:51:24.871Z,20.40
2022-11-29T14:54:04.881Z,23.30
2022-11-29T14:56:31.114Z,22.27
2022-11-29T14:59:34.959Z,26.00
2022-11-29T15:02:14.529Z,25.00
2022-11-29T15:04:41.550Z,23.15
2022-11-29T15:07:16.933Z,26.23
2022-11-29T15:09:44.106Z,25.88
2022-11-29T15:12:21.461Z,24.02
2022-11-29T15:15:09.743Z,25.58
2022-11-29T15:18:00.929Z,21.08
2022-11-29T15:20:39.529Z,21.10
2022-11-29T15:23:11.150Z,21.08
2022-11-29T15:25:47.840Z,25.75
2022-11-29T15:28:21.625Z,20.35
2022-11-29T15:30:48.936Z,23.48
2022-11-29T15:33:24.432Z,21.63
2022-11-29T15:35:54.253Z,21.90
2022-11-29T15:38:22.671Z,20.08
2022-11-29T15:40:54.575Z,24.25
2022-11-29T15:43:27.012Z,30.23
2022-11-29T15:45:55.511Z,29.67
2022-11-29T15:48:27.601Z,19.38
2022-11-29T15:51:17.951Z,22.80
2022-11-29T15:53:49.928Z,20.52
2022-11-29T15:56:33.406Z,19.15
2022-11-29T15:59:04.490Z,20.63
2022-11-29T16:01:35.089Z,20.85
2022-11-29T16:04:02.160Z,22.23
2022-11-29T16:06:38.603Z,17.05
2022-11-29T16:09:12.266Z,22.92
2022-11-29T16:11:39.486Z,20.27
2022-11-29T16:14:11.938Z,21.92
2022-11-29T16:16:39.953Z,26.55
2022-11-29T16:19:16.120Z,31.35
2022-11-29T16:21:44.128Z,25.38
2022-11-29T16:24:38.974Z,37.78
2022-11-29T16:27:07.579Z,29.35
2022-11-29T16:29:37.087Z,24.83
2022-11-29T16:32:26.168Z,24.17
2022-11-29T16:34:53.289Z,22.02
2022-11-29T16:37:28.865Z,20.02
2022-11-29T16:40:00.563Z,19.05
2022-11-29T16:42:31.416Z,18.90
2022-11-29T16:45:07.000Z,17.10
2022-11-29T16:48:09.474Z,19.50
2022-11-29T16:50:35.865Z,17.80
2022-11-29T16:53:32.449Z,18.35
2022-11-29T16:55:58.803Z,18.75
2022-11-29T16:58:25.239Z,16.33
2022-11-29T17:00:51.617Z,15.07
2022-11-29T17:03:18.871Z,16.52
2022-11-29T17:05:45.267Z,17.13
2022-11-29T17:08:11.737Z,16.13
2022-11-29T17:10:38.132Z,16.98
2022-11-29T17:13:04.478Z,15.13
2022-11-29T17:15:32.206Z,13.88
2022-11-29T17:17:58.577Z,13.98
2022-11-29T17:20:24.934Z,15.35
2022-11-29T17:22:51.268Z,15.07
2022-11-29T17:25:17.646Z,14.73
2022-11-29T17:27:44.059Z,14.45
2022-11-29T17:30:11.434Z,16.23
2022-11-29T17:32:38.299Z,12.65
2022-11-29T17:35:05.134Z,13.05
2022-11-29T17:37:31.835Z,12.23
2022-11-29T17:39:58.240Z,13.38
2022-11-29T17:42:24.778Z,16.13
2022-11-29T17:44:51.186Z,12.90
2022-11-29T17:47:17.619Z,13.02
2022-11-29T17:49:44.509Z,13.98
2022-11-29T17:52:11.177Z,16.17
2022-11-29T17:54:37.834Z,14.48
2022-11-29T17:57:04.677Z,13.77
2022-11-29T17:59:31.074Z,15.48
2022-11-29T18:01:57.428Z,15.20
2022-11-29T18:04:23.914Z,16.63
2022-11-29T18:06:51.966Z,20.70
2022-11-29T18:09:19.428Z,15.55
2022-11-29T18:11:49.143Z,15.40
2022-11-29T18:14:28.207Z,14.75
2022-11-29T18:16:55.037Z,12.07
2022-11-29T18:19:23.284Z,12.52
2022-11-29T18:21:50.290Z,14.27
2022-11-29T18:24:17.196Z,13.38
2022-11-29T18:26:43.982Z,14.48
2022-11-29T18:29:10.843Z,15.55
2022-11-29T18:31:40.487Z,19.45
2022-11-29T18:34:12.874Z,18.67
2022-11-29T18:36:49.732Z,16.95
2022-11-29T18:39:19.056Z,13.60
2022-11-29T18:41:49.622Z,12.30
2022-11-29T18:44:18.178Z,13.63
2022-11-29T18:46:45.903Z,14.68
2022-11-29T18:49:14.803Z,14.05
2022-11-29T18:51:45.763Z,12.27
2022-11-29T18:54:13.680Z,14.77
2022-11-29T18:56:41.013Z,12.13
2022-11-29T18:59:10.777Z,16.10
2022-11-29T19:01:40.971Z,15.40
2022-11-29T19:04:09.845Z,12.00
2022-11-29T19:06:39.726Z,10.90
2022-11-29T19:09:08.335Z,15.07
2022-11-29T19:11:34.916Z,13.65
2022-11-29T19:14:04.777Z,12.02
2022-11-29T19:16:33.644Z,15.60
2022-11-29T19:19:01.170Z,12.23
2022-11-29T19:21:29.497Z,13.80
2022-11-29T19:23:58.074Z,14.05
2022-11-29T19:26:26.699Z,13.93
2022-11-29T19:28:53.758Z,12.95
2022-11-29T19:31:23.951Z,11.25
2022-11-29T19:33:53.956Z,11.80
2022-11-29T19:36:23.320Z,11.75
2022-11-29T19:38:54.822Z,12.30
2022-11-29T19:41:32.939Z,12.65
2022-11-29T19:44:01.178Z,14.13
2022-11-29T19:46:33.455Z,11.85
2022-11-29T19:49:03.303Z,17.05
2022-11-29T19:51:30.241Z,14.15
2022-11-29T19:54:10.661Z,17.48
2022-11-29T19:56:38.650Z,18.20
2022-11-29T19:59:06.665Z,13.63
2022-11-29T20:01:40.241Z,15.40
2022-11-29T20:04:07.635Z,17.13
2022-11-29T20:06:34.648Z,15.18
2022-11-29T20:09:01.940Z,14.13
2022-11-29T20:11:29.806Z,15.63
2022-11-29T20:14:01.079Z,18.25
2022-11-29T20:16:28.956Z,14.38
2022-11-29T20:18:56.904Z,10.48
2022-11-29T20:21:26.228Z,17.33
2022-11-29T20:24:02.904Z,14.80
2022-11-29T20:26:33.539Z,16.05
2022-11-29T20:29:01.739Z,17.98
2022-11-29T20:31:28.634Z,18.50
2022-11-29T20:33:58.827Z,25.63
2022-11-29T20:36:52.999Z,20.55
2022-11-29T20:40:07.654Z,12.07
2022-11-29T20:42:52.581Z,11.35
2022-11-29T20:45:19.270Z,10.75
2022-11-29T20:48:11.099Z,12.77
2022-11-29T20:50:38.797Z,8.38
2022-11-29T20:53:42.086Z,12.15
2022-11-29T20:56:10.376Z,8.48
2022-11-29T20:58:37.574Z,9.63
2022-11-29T21:01:04.914Z,10.05
2022-11-29T21:03:31.476Z,10.40
2022-11-29T21:06:01.675Z,12.35
2022-11-29T21:08:28.309Z,12.52
2022-11-29T21:11:01.151Z,9.70
2022-11-29T21:13:27.830Z,10.52
2022-11-29T21:15:54.517Z,9.10
2022-11-29T21:18:25.029Z,10.80
2022-11-29T21:21:06.174Z,11.80
2022-11-29T21:23:45.159Z,13.20
2022-11-29T21:26:16.802Z,10.68
2022-11-29T21:29:04.633Z,12.23
2022-11-29T21:31:31.360Z,11.23
2022-11-29T21:33:58.025Z,15.05
2022-11-29T21:36:24.529Z,10.18
2022-11-29T21:38:55.065Z,16.15
2022-11-29T21:41:21.901Z,12.75
2022-11-29T21:44:06.084Z,12.45
2022-11-29T21:46:33.794Z,16.05
2022-11-29T21:49:00.146Z,12.55
2022-11-29T21:51:26.667Z,10.93
2022-11-29T21:53:52.972Z,14.20
2022-11-29T21:56:19.318Z,13.68
2022-11-29T21:58:45.710Z,13.00
2022-11-29T22:01:15.129Z,12.10
2022-11-29T22:03:42.558Z,12.80
2022-11-29T22:06:16.241Z,13.27
2022-11-29T22:08:42.572Z,10.20
2022-11-29T22:11:14.925Z,14.10
2022-11-29T22:14:02.207Z,15.45
2022-11-29T22:16:29.951Z,12.02
2022-11-29T22:18:56.504Z,16.45
2022-11-29T22:21:25.615Z,12.18
2022-11-29T22:23:52.513Z,17.02
2022-11-29T22:26:20.786Z,18.92
2022-11-29T22:28:47.265Z,15.63
2022-11-29T22:31:13.681Z,11.95
2022-11-29T22:33:40.066Z,15.80
2022-11-29T22:36:09.149Z,13.70
2022-11-29T22:38:36.084Z,17.27
2022-11-29T22:41:07.741Z,12.35
2022-11-29T22:43:35.365Z,19.70
2022-11-29T22:46:12.976Z,13.65
2022-11-29T22:48:40.241Z,13.45
2022-11-29T22:51:08.544Z,17.10
2022-11-29T22:53:36.359Z,15.32
2022-11-29T22:56:05.968Z,17.25
2022-11-29T22:58:32.468Z,12.82
2022-11-29T23:01:09.510Z,13.45
2022-11-29T23:03:37.427Z,14.77
2022-11-29T23:06:09.776Z,16.38
2022-11-29T23:08:44.125Z,16.40
2022-11-29T23:11:13.158Z,18.10
2022-11-29T23:13:41.556Z,20.50
2022-11-29T23:16:12.558Z,18.30
2022-11-29T23:18:39.906Z,18.58
2022-11-29T23:21:12.384Z,17.10
2022-11-29T23:23:38.942Z,23.73
2022-11-29T23:26:07.495Z,15.45
2022-11-29T23:28:35.473Z,18.00
2022-11-29T23:31:02.219Z,18.63
2022-11-29T23:33:28.799Z,20.58
2022-11-29T23:36:03.680Z,16.95
2022-11-29T23:38:30.694Z,18.65
2022-11-29T23:40:59.644Z,16.73
2022-11-29T23:43:29.764Z,18.02
2022-11-29T23:45:56.647Z,13.70
2022-11-29T23:48:23.585Z,17.55
2022-11-29T23:50:50.196Z,16.20
2022-11-29T23:53:20.952Z,14.75
2022-11-29T23:55:56.034Z,17.98
2022-11-29T23:58:22.650Z,14.38
